sensor_id;sensor_type;location;lat;lon;timestamp;pressure;altitude;pressure_sealevel;temperature;humidity
69855;BME280;57146;48.140;16.304;2023-04-09T00:02:18;100016.19;;;4.52;91.36
69855;BME280;57146;48.140;16.304;2023-04-09T00:04:45;100015.94;;;4.53;90.96
69855;BME280;57146;48.140;16.304;2023-04-09T00:07:12;100003.53;;;4.44;92.35
69855;BME280;57146;48.140;16.304;2023-04-09T00:09:39;100013.44;;;4.42;92.94
69855;BME280;57146;48.140;16.304;2023-04-09T00:12:06;100007.63;;;4.35;93.83
69855;BME280;57146;48.140;16.304;2023-04-09T00:14:33;100009.75;;;4.38;93.50
69855;BME280;57146;48.140;16.304;2023-04-09T00:17:00;100006.88;;;4.39;93.36
69855;BME280;57146;48.140;16.304;2023-04-09T00:19:27;100007.91;;;4.38;94.85
69855;BME280;57146;48.140;16.304;2023-04-09T00:21:54;100006.28;;;4.32;94.70
69855;BME280;57146;48.140;16.304;2023-04-09T00:24:21;100020.81;;;4.28;96.73
69855;BME280;57146;48.140;16.304;2023-04-09T00:26:47;100011.34;;;4.22;96.62
69855;BME280;57146;48.140;16.304;2023-04-09T00:29:14;100020.19;;;4.21;97.02
69855;BME280;57146;48.140;16.304;2023-04-09T00:31:41;100018.25;;;4.33;95.91
69855;BME280;57146;48.140;16.304;2023-04-09T00:34:08;100011.06;;;4.40;94.80
69855;BME280;57146;48.140;16.304;2023-04-09T00:36:35;100014.22;;;4.42;93.99
69855;BME280;57146;48.140;16.304;2023-04-09T00:39:02;100012.41;;;4.43;93.62
69855;BME280;57146;48.140;16.304;2023-04-09T00:41:29;100011.38;;;4.44;93.68
69855;BME280;57146;48.140;16.304;2023-04-09T00:43:56;100016.09;;;4.47;92.94
69855;BME280;57146;48.140;16.304;2023-04-09T00:46:23;100008.44;;;4.40;92.97
69855;BME280;57146;48.140;16.304;2023-04-09T00:48:50;100019.28;;;4.49;92.58
69855;BME280;57146;48.140;16.304;2023-04-09T00:51:18;100021.50;;;4.40;93.55
69855;BME280;57146;48.140;16.304;2023-04-09T00:53:45;100021.97;;;4.37;93.87
69855;BME280;57146;48.140;16.304;2023-04-09T00:56:12;100015.25;;;4.41;93.36
69855;BME280;57146;48.140;16.304;2023-04-09T00:58:41;100019.28;;;4.49;93.39
69855;BME280;57146;48.140;16.304;2023-04-09T01:01:09;100019.97;;;4.44;93.00
69855;BME280;57146;48.140;16.304;2023-04-09T01:03:36;100020.78;;;4.45;92.71
69855;BME280;57146;48.140;16.304;2023-04-09T01:06:09;100010.59;;;4.43;92.19
69855;BME280;57146;48.140;16.304;2023-04-09T01:08:55;100011.84;;;4.41;90.74
69855;BME280;57146;48.140;16.304;2023-04-09T01:11:39;100008.16;;;4.37;91.04
69855;BME280;57146;48.140;16.304;2023-04-09T01:14:38;100012.75;;;4.29;91.46
69855;BME280;57146;48.140;16.304;2023-04-09T01:20:25;100020.97;;;4.21;93.63
69855;BME280;57146;48.140;16.304;2023-04-09T01:23:18;100019.94;;;4.22;92.88
69855;BME280;57146;48.140;16.304;2023-04-09T01:28:53;100015.59;;;4.28;91.09
69855;BME280;57146;48.140;16.304;2023-04-09T01:31:27;100016.63;;;4.27;91.35
69855;BME280;57146;48.140;16.304;2023-04-09T01:33:54;100017.91;;;4.24;91.32
69855;BME280;57146;48.140;16.304;2023-04-09T01:36:23;100014.41;;;4.19;91.70
69855;BME280;57146;48.140;16.304;2023-04-09T01:38:51;100016.19;;;4.13;91.60
69855;BME280;57146;48.140;16.304;2023-04-09T01:41:22;100018.38;;;4.04;94.02
69855;BME280;57146;48.140;16.304;2023-04-09T01:43:51;100016.25;;;4.01;94.77
69855;BME280;57146;48.140;16.304;2023-04-09T01:46:20;100015.72;;;3.99;96.07
69855;BME280;57146;48.140;16.304;2023-04-09T01:48:47;100013.56;;;3.96;96.23
69855;BME280;57146;48.140;16.304;2023-04-09T01:51:17;100017.75;;;3.97;95.81
69855;BME280;57146;48.140;16.304;2023-04-09T01:53:44;100012.13;;;4.05;95.58
69855;BME280;57146;48.140;16.304;2023-04-09T01:56:11;100014.72;;;4.05;94.54
69855;BME280;57146;48.140;16.304;2023-04-09T01:58:40;100016.88;;;4.08;94.57
69855;BME280;57146;48.140;16.304;2023-04-09T02:01:33;100015.59;;;4.11;92.97
69855;BME280;57146;48.140;16.304;2023-04-09T02:04:04;100013.31;;;4.15;92.70
69855;BME280;57146;48.140;16.304;2023-04-09T02:09:19;100022.53;;;4.05;94.18
69855;BME280;57146;48.140;16.304;2023-04-09T02:11:48;100011.59;;;4.03;94.96
69855;BME280;57146;48.140;16.304;2023-04-09T02:14:17;100019.88;;;4.00;93.81
69855;BME280;57146;48.140;16.304;2023-04-09T02:16:47;100023.59;;;4.04;93.28
69855;BME280;57146;48.140;16.304;2023-04-09T02:19:14;100017.22;;;3.95;93.81
69855;BME280;57146;48.140;16.304;2023-04-09T02:21:41;100019.31;;;3.98;93.30
69855;BME280;57146;48.140;16.304;2023-04-09T02:24:08;100016.50;;;4.00;91.70
69855;BME280;57146;48.140;16.304;2023-04-09T02:26:35;100017.84;;;4.02;91.73
69855;BME280;57146;48.140;16.304;2023-04-09T02:29:02;100012.31;;;3.99;91.74
69855;BME280;57146;48.140;16.304;2023-04-09T02:31:29;100014.09;;;3.98;92.70
69855;BME280;57146;48.140;16.304;2023-04-09T02:33:57;100001.16;;;3.87;94.57
69855;BME280;57146;48.140;16.304;2023-04-09T02:36:24;100011.44;;;3.93;94.49
69855;BME280;57146;48.140;16.304;2023-04-09T02:38:50;100005.97;;;3.95;93.61
69855;BME280;57146;48.140;16.304;2023-04-09T02:41:18;99998.97;;;3.95;93.93
69855;BME280;57146;48.140;16.304;2023-04-09T02:43:45;100002.53;;;3.89;93.52
69855;BME280;57146;48.140;16.304;2023-04-09T02:46:11;99999.59;;;3.86;94.66
69855;BME280;57146;48.140;16.304;2023-04-09T02:48:39;99992.41;;;3.93;94.30
69855;BME280;57146;48.140;16.304;2023-04-09T02:51:06;99998.56;;;4.03;92.19
69855;BME280;57146;48.140;16.304;2023-04-09T02:53:37;100004.19;;;3.95;93.17
69855;BME280;57146;48.140;16.304;2023-04-09T02:56:04;100005.13;;;3.89;93.76
69855;BME280;57146;48.140;16.304;2023-04-09T02:58:32;100010.75;;;3.81;95.06
69855;BME280;57146;48.140;16.304;2023-04-09T03:00:59;99997.56;;;3.71;95.49
69855;BME280;57146;48.140;16.304;2023-04-09T03:03:27;100006.69;;;3.73;95.22
69855;BME280;57146;48.140;16.304;2023-04-09T03:05:54;100010.25;;;3.84;94.49
69855;BME280;57146;48.140;16.304;2023-04-09T03:08:21;100012.94;;;3.89;92.93
69855;BME280;57146;48.140;16.304;2023-04-09T03:10:48;100008.91;;;3.98;92.75
69855;BME280;57146;48.140;16.304;2023-04-09T03:13:17;100008.91;;;3.98;92.20
69855;BME280;57146;48.140;16.304;2023-04-09T03:15:44;100011.81;;;4.02;92.32
69855;BME280;57146;48.140;16.304;2023-04-09T03:18:11;100003.47;;;4.00;91.94
69855;BME280;57146;48.140;16.304;2023-04-09T03:20:38;100013.09;;;3.99;92.00
69855;BME280;57146;48.140;16.304;2023-04-09T03:23:09;100006.84;;;4.00;91.29
69855;BME280;57146;48.140;16.304;2023-04-09T03:25:41;100012.84;;;4.01;90.63
69855;BME280;57146;48.140;16.304;2023-04-09T03:28:11;100013.88;;;4.00;91.15
69855;BME280;57146;48.140;16.304;2023-04-09T03:30:51;100012.78;;;3.79;92.97
69855;BME280;57146;48.140;16.304;2023-04-09T03:33:19;100009.22;;;3.85;92.51
69855;BME280;57146;48.140;16.304;2023-04-09T03:35:52;100001.56;;;3.78;91.53
69855;BME280;57146;48.140;16.304;2023-04-09T03:38:32;100002.19;;;3.86;91.45
69855;BME280;57146;48.140;16.304;2023-04-09T03:41:04;100009.44;;;3.83;91.87
69855;BME280;57146;48.140;16.304;2023-04-09T03:43:36;100005.59;;;3.86;92.61
69855;BME280;57146;48.140;16.304;2023-04-09T03:46:29;100006.38;;;3.87;93.93
69855;BME280;57146;48.140;16.304;2023-04-09T03:48:59;100007.41;;;3.86;94.03
69855;BME280;57146;48.140;16.304;2023-04-09T03:51:34;100007.81;;;3.77;94.56
69855;BME280;57146;48.140;16.304;2023-04-09T03:54:01;100011.50;;;3.65;95.85
69855;BME280;57146;48.140;16.304;2023-04-09T03:56:29;100024.69;;;3.75;95.07
69855;BME280;57146;48.140;16.304;2023-04-09T03:58:56;100013.81;;;3.78;94.16
69855;BME280;57146;48.140;16.304;2023-04-09T04:01:33;100022.09;;;3.75;95.47
69855;BME280;57146;48.140;16.304;2023-04-09T04:04:01;100019.94;;;3.72;95.61
69855;BME280;57146;48.140;16.304;2023-04-09T04:06:37;100017.44;;;3.60;96.40
69855;BME280;57146;48.140;16.304;2023-04-09T04:09:22;100030.13;;;3.56;97.21
69855;BME280;57146;48.140;16.304;2023-04-09T04:11:56;100024.19;;;3.61;97.73
69855;BME280;57146;48.140;16.304;2023-04-09T04:14:34;100028.63;;;3.60;97.98
69855;BME280;57146;48.140;16.304;2023-04-09T04:17:12;100030.63;;;3.70;96.95
69855;BME280;57146;48.140;16.304;2023-04-09T04:19:39;100035.25;;;3.68;96.77
69855;BME280;57146;48.140;16.304;2023-04-09T04:22:06;100040.16;;;3.65;97.16
69855;BME280;57146;48.140;16.304;2023-04-09T04:24:38;100041.88;;;3.76;96.01
69855;BME280;57146;48.140;16.304;2023-04-09T04:27:06;100047.50;;;3.68;96.79
69855;BME280;57146;48.140;16.304;2023-04-09T04:29:34;100049.00;;;3.64;97.45
69855;BME280;57146;48.140;16.304;2023-04-09T04:32:03;100049.78;;;3.64;98.02
69855;BME280;57146;48.140;16.304;2023-04-09T04:34:35;100049.91;;;3.57;97.98
69855;BME280;57146;48.140;16.304;2023-04-09T04:37:12;100051.72;;;3.57;98.86
69855;BME280;57146;48.140;16.304;2023-04-09T04:39:39;100051.91;;;3.67;97.88
69855;BME280;57146;48.140;16.304;2023-04-09T04:42:10;100057.50;;;3.76;95.51
69855;BME280;57146;48.140;16.304;2023-04-09T04:44:37;100049.84;;;3.69;95.39
69855;BME280;57146;48.140;16.304;2023-04-09T04:47:31;100055.22;;;3.79;93.94
69855;BME280;57146;48.140;16.304;2023-04-09T04:49:58;100059.25;;;3.87;92.65
69855;BME280;57146;48.140;16.304;2023-04-09T04:52:26;100052.94;;;3.83;93.41
69855;BME280;57146;48.140;16.304;2023-04-09T04:54:53;100056.72;;;3.75;95.44
69855;BME280;57146;48.140;16.304;2023-04-09T04:57:23;100062.44;;;3.89;94.17
69855;BME280;57146;48.140;16.304;2023-04-09T04:59:50;100056.91;;;3.86;94.03
69855;BME280;57146;48.140;16.304;2023-04-09T05:02:17;100064.28;;;3.77;95.05
69855;BME280;57146;48.140;16.304;2023-04-09T05:04:58;100065.63;;;3.63;96.82
69855;BME280;57146;48.140;16.304;2023-04-09T05:07:33;100069.50;;;3.77;97.19
69855;BME280;57146;48.140;16.304;2023-04-09T05:10:01;100065.09;;;3.94;94.86
69855;BME280;57146;48.140;16.304;2023-04-09T05:12:34;100063.38;;;4.00;94.32
69855;BME280;57146;48.140;16.304;2023-04-09T05:15:01;100063.44;;;4.05;93.64
69855;BME280;57146;48.140;16.304;2023-04-09T05:17:28;100063.75;;;4.08;93.62
69855;BME280;57146;48.140;16.304;2023-04-09T05:19:55;100061.94;;;4.09;93.51
69855;BME280;57146;48.140;16.304;2023-04-09T05:22:31;100065.38;;;4.10;92.98
69855;BME280;57146;48.140;16.304;2023-04-09T05:24:58;100069.75;;;4.09;93.18
69855;BME280;57146;48.140;16.304;2023-04-09T05:27:25;100064.56;;;4.09;93.24
69855;BME280;57146;48.140;16.304;2023-04-09T05:29:57;100066.16;;;4.10;93.40
69855;BME280;57146;48.140;16.304;2023-04-09T05:32:27;100069.53;;;4.11;93.04
69855;BME280;57146;48.140;16.304;2023-04-09T05:34:54;100072.69;;;4.13;92.75
69855;BME280;57146;48.140;16.304;2023-04-09T05:37:24;100069.28;;;4.12;93.23
69855;BME280;57146;48.140;16.304;2023-04-09T05:39:52;100070.66;;;4.15;93.49
69855;BME280;57146;48.140;16.304;2023-04-09T05:42:19;100078.56;;;4.20;93.29
69855;BME280;57146;48.140;16.304;2023-04-09T05:45:02;100074.34;;;4.19;93.83
69855;BME280;57146;48.140;16.304;2023-04-09T05:47:30;100082.16;;;4.19;94.34
69855;BME280;57146;48.140;16.304;2023-04-09T05:50:09;100085.09;;;4.22;93.73
69855;BME280;57146;48.140;16.304;2023-04-09T05:52:37;100094.19;;;4.20;93.78
69855;BME280;57146;48.140;16.304;2023-04-09T05:55:04;100092.28;;;4.15;93.17
69855;BME280;57146;48.140;16.304;2023-04-09T05:57:42;100095.91;;;4.14;93.95
69855;BME280;57146;48.140;16.304;2023-04-09T06:00:10;100100.41;;;4.19;93.12
69855;BME280;57146;48.140;16.304;2023-04-09T06:02:44;100091.66;;;4.25;92.99
69855;BME280;57146;48.140;16.304;2023-04-09T06:05:11;100098.44;;;4.26;92.69
69855;BME280;57146;48.140;16.304;2023-04-09T06:07:39;100086.38;;;4.20;93.51
69855;BME280;57146;48.140;16.304;2023-04-09T06:10:07;100095.03;;;4.25;93.51
69855;BME280;57146;48.140;16.304;2023-04-09T06:12:34;100093.63;;;4.35;93.84
69855;BME280;57146;48.140;16.304;2023-04-09T06:15:06;100100.16;;;4.37;94.02
69855;BME280;57146;48.140;16.304;2023-04-09T06:17:34;100097.19;;;4.45;94.09
69855;BME280;57146;48.140;16.304;2023-04-09T06:20:01;100096.19;;;4.51;93.29
69855;BME280;57146;48.140;16.304;2023-04-09T06:22:28;100099.22;;;4.60;92.64
69855;BME280;57146;48.140;16.304;2023-04-09T06:24:56;100101.09;;;4.65;91.80
69855;BME280;57146;48.140;16.304;2023-04-09T06:27:23;100105.03;;;4.67;91.77
69855;BME280;57146;48.140;16.304;2023-04-09T06:29:50;100105.84;;;4.68;92.02
69855;BME280;57146;48.140;16.304;2023-04-09T06:32:17;100096.28;;;4.73;92.09
69855;BME280;57146;48.140;16.304;2023-04-09T06:34:44;100101.50;;;4.73;92.23
69855;BME280;57146;48.140;16.304;2023-04-09T06:37:11;100104.41;;;4.77;93.04
69855;BME280;57146;48.140;16.304;2023-04-09T06:39:37;100102.31;;;4.79;92.90
69855;BME280;57146;48.140;16.304;2023-04-09T06:42:11;100100.41;;;4.91;91.89
69855;BME280;57146;48.140;16.304;2023-04-09T06:44:49;100111.63;;;4.92;92.07
69855;BME280;57146;48.140;16.304;2023-04-09T06:47:15;100106.47;;;4.97;91.27
69855;BME280;57146;48.140;16.304;2023-04-09T06:49:42;100110.44;;;4.99;91.49
69855;BME280;57146;48.140;16.304;2023-04-09T06:52:09;100112.31;;;5.04;92.52
69855;BME280;57146;48.140;16.304;2023-04-09T06:54:36;100108.19;;;5.08;91.96
69855;BME280;57146;48.140;16.304;2023-04-09T06:57:03;100111.38;;;5.15;90.92
69855;BME280;57146;48.140;16.304;2023-04-09T06:59:30;100111.47;;;5.20;90.87
69855;BME280;57146;48.140;16.304;2023-04-09T07:01:59;100111.22;;;5.22;89.40
69855;BME280;57146;48.140;16.304;2023-04-09T07:04:27;100111.78;;;5.24;89.43
69855;BME280;57146;48.140;16.304;2023-04-09T07:06:54;100118.03;;;5.23;89.47
69855;BME280;57146;48.140;16.304;2023-04-09T07:09:21;100119.03;;;5.22;90.04
69855;BME280;57146;48.140;16.304;2023-04-09T07:11:47;100123.25;;;5.23;89.73
69855;BME280;57146;48.140;16.304;2023-04-09T07:14:15;100126.41;;;5.25;90.61
69855;BME280;57146;48.140;16.304;2023-04-09T07:16:42;100131.13;;;5.28;90.55
69855;BME280;57146;48.140;16.304;2023-04-09T07:19:09;100135.91;;;5.36;90.31
69855;BME280;57146;48.140;16.304;2023-04-09T07:21:36;100135.22;;;5.41;89.77
69855;BME280;57146;48.140;16.304;2023-04-09T07:24:03;100133.44;;;5.46;89.36
69855;BME280;57146;48.140;16.304;2023-04-09T07:26:30;100142.13;;;5.52;89.19
69855;BME280;57146;48.140;16.304;2023-04-09T07:28:57;100128.63;;;5.60;88.68
69855;BME280;57146;48.140;16.304;2023-04-09T07:31:24;100135.22;;;5.68;87.26
69855;BME280;57146;48.140;16.304;2023-04-09T07:33:52;100130.56;;;5.70;88.14
69855;BME280;57146;48.140;16.304;2023-04-09T07:36:20;100127.19;;;5.74;86.00
69855;BME280;57146;48.140;16.304;2023-04-09T07:38:47;100136.13;;;5.79;85.67
69855;BME280;57146;48.140;16.304;2023-04-09T07:41:15;100140.25;;;5.74;86.53
69855;BME280;57146;48.140;16.304;2023-04-09T07:43:42;100134.25;;;5.74;86.23
69855;BME280;57146;48.140;16.304;2023-04-09T07:46:19;100143.91;;;5.73;86.90
69855;BME280;57146;48.140;16.304;2023-04-09T07:48:48;100146.56;;;5.79;85.93
69855;BME280;57146;48.140;16.304;2023-04-09T07:51:15;100149.94;;;5.74;85.36
69855;BME280;57146;48.140;16.304;2023-04-09T07:53:43;100146.53;;;5.73;83.69
69855;BME280;57146;48.140;16.304;2023-04-09T07:56:10;100142.63;;;5.76;83.45
69855;BME280;57146;48.140;16.304;2023-04-09T07:58:37;100143.72;;;5.80;82.56
69855;BME280;57146;48.140;16.304;2023-04-09T08:01:08;100146.38;;;5.85;82.87
69855;BME280;57146;48.140;16.304;2023-04-09T08:03:35;100151.34;;;5.87;82.86
69855;BME280;57146;48.140;16.304;2023-04-09T08:06:03;100156.88;;;5.90;81.55
69855;BME280;57146;48.140;16.304;2023-04-09T08:08:31;100153.00;;;5.93;81.86
69855;BME280;57146;48.140;16.304;2023-04-09T08:10:58;100153.91;;;5.82;82.78
69855;BME280;57146;48.140;16.304;2023-04-09T08:13:25;100161.19;;;5.80;83.63
69855;BME280;57146;48.140;16.304;2023-04-09T08:15:51;100152.06;;;5.77;83.85
69855;BME280;57146;48.140;16.304;2023-04-09T08:18:19;100150.50;;;5.81;82.71
69855;BME280;57146;48.140;16.304;2023-04-09T08:20:47;100152.88;;;5.83;83.11
69855;BME280;57146;48.140;16.304;2023-04-09T08:23:14;100153.34;;;5.80;83.93
69855;BME280;57146;48.140;16.304;2023-04-09T08:25:41;100150.50;;;5.81;84.57
69855;BME280;57146;48.140;16.304;2023-04-09T08:28:07;100157.91;;;5.89;83.31
69855;BME280;57146;48.140;16.304;2023-04-09T08:30:34;100160.53;;;5.89;84.54
69855;BME280;57146;48.140;16.304;2023-04-09T08:33:01;100159.88;;;5.99;85.06
69855;BME280;57146;48.140;16.304;2023-04-09T08:35:32;100156.78;;;6.07;83.96
69855;BME280;57146;48.140;16.304;2023-04-09T08:37:59;100165.13;;;6.04;84.19
69855;BME280;57146;48.140;16.304;2023-04-09T08:40:26;100164.16;;;6.10;83.99
69855;BME280;57146;48.140;16.304;2023-04-09T08:42:54;100162.09;;;6.12;84.62
69855;BME280;57146;48.140;16.304;2023-04-09T08:45:22;100161.28;;;6.12;84.17
69855;BME280;57146;48.140;16.304;2023-04-09T08:47:50;100165.53;;;6.18;84.15
69855;BME280;57146;48.140;16.304;2023-04-09T08:50:18;100170.22;;;6.16;85.07
69855;BME280;57146;48.140;16.304;2023-04-09T08:52:45;100167.84;;;6.14;85.16
69855;BME280;57146;48.140;16.304;2023-04-09T08:55:13;100172.59;;;6.22;85.43
69855;BME280;57146;48.140;16.304;2023-04-09T08:57:40;100166.09;;;6.25;84.81
69855;BME280;57146;48.140;16.304;2023-04-09T09:00:07;100171.91;;;6.32;83.93
69855;BME280;57146;48.140;16.304;2023-04-09T09:02:34;100168.03;;;6.35;85.69
69855;BME280;57146;48.140;16.304;2023-04-09T09:05:02;100173.06;;;6.46;84.58
69855;BME280;57146;48.140;16.304;2023-04-09T09:07:30;100174.97;;;6.51;83.40
69855;BME280;57146;48.140;16.304;2023-04-09T09:10:00;100175.00;;;6.56;82.17
69855;BME280;57146;48.140;16.304;2023-04-09T09:12:39;100175.53;;;6.58;81.94
69855;BME280;57146;48.140;16.304;2023-04-09T09:15:28;100172.66;;;6.60;81.07
69855;BME280;57146;48.140;16.304;2023-04-09T09:17:57;100166.34;;;6.56;82.08
69855;BME280;57146;48.140;16.304;2023-04-09T09:20:25;100174.28;;;6.66;80.03
69855;BME280;57146;48.140;16.304;2023-04-09T09:22:54;100172.41;;;6.61;80.67
69855;BME280;57146;48.140;16.304;2023-04-09T09:25:22;100171.38;;;6.62;81.11
69855;BME280;57146;48.140;16.304;2023-04-09T09:27:49;100174.00;;;6.67;80.11
69855;BME280;57146;48.140;16.304;2023-04-09T09:30:21;100170.06;;;6.65;80.84
69855;BME280;57146;48.140;16.304;2023-04-09T09:35:30;100182.56;;;6.58;83.03
69855;BME280;57146;48.140;16.304;2023-04-09T09:38:01;100175.53;;;6.58;81.36
69855;BME280;57146;48.140;16.304;2023-04-09T09:40:28;100171.91;;;6.64;82.03
69855;BME280;57146;48.140;16.304;2023-04-09T09:42:56;100168.25;;;6.65;80.07
69855;BME280;57146;48.140;16.304;2023-04-09T09:45:23;100174.00;;;6.67;79.82
69855;BME280;57146;48.140;16.304;2023-04-09T09:47:51;100171.38;;;6.62;82.08
69855;BME280;57146;48.140;16.304;2023-04-09T09:50:22;100177.88;;;6.55;83.20
69855;BME280;57146;48.140;16.304;2023-04-09T09:52:54;100177.09;;;6.59;83.18
69855;BME280;57146;48.140;16.304;2023-04-09T09:55:26;100176.28;;;6.54;83.51
69855;BME280;57146;48.140;16.304;2023-04-09T09:57:55;100168.75;;;6.62;84.09
69855;BME280;57146;48.140;16.304;2023-04-09T10:00:25;100164.53;;;6.61;83.68
69855;BME280;57146;48.140;16.304;2023-04-09T10:02:58;100170.06;;;6.65;83.25
69855;BME280;57146;48.140;16.304;2023-04-09T10:05:25;100179.25;;;6.67;83.49
69855;BME280;57146;48.140;16.304;2023-04-09T10:07:57;100174.09;;;6.83;83.16
69855;BME280;57146;48.140;16.304;2023-04-09T10:10:26;100166.59;;;6.96;83.13
69855;BME280;57146;48.140;16.304;2023-04-09T10:12:53;100163.53;;;7.05;83.39
69855;BME280;57146;48.140;16.304;2023-04-09T10:15:20;100164.09;;;7.12;83.51
69855;BME280;57146;48.140;16.304;2023-04-09T10:17:47;100163.06;;;7.18;82.62
69855;BME280;57146;48.140;16.304;2023-04-09T10:20:21;100167.03;;;7.31;82.86
69855;BME280;57146;48.140;16.304;2023-04-09T10:22:50;100162.03;;;7.29;80.85
69855;BME280;57146;48.140;16.304;2023-04-09T10:25:19;100156.84;;;7.39;79.53
69855;BME280;57146;48.140;16.304;2023-04-09T10:28:01;100149.03;;;7.50;81.70
69855;BME280;57146;48.140;16.304;2023-04-09T10:30:35;100148.00;;;7.56;81.58
69855;BME280;57146;48.140;16.304;2023-04-09T10:33:09;100151.44;;;7.61;80.13
69855;BME280;57146;48.140;16.304;2023-04-09T10:35:37;100145.44;;;7.66;78.68
69855;BME280;57146;48.140;16.304;2023-04-09T10:38:07;100147.00;;;7.67;76.80
69855;BME280;57146;48.140;16.304;2023-04-09T10:40:49;100147.00;;;7.67;76.25
69855;BME280;57146;48.140;16.304;2023-04-09T10:43:18;100143.34;;;7.78;76.41
69855;BME280;57146;48.140;16.304;2023-04-09T10:45:47;100139.94;;;7.93;77.98
69855;BME280;57146;48.140;16.304;2023-04-09T10:48:18;100140.75;;;7.99;75.67
69855;BME280;57146;48.140;16.304;2023-04-09T10:50:45;100138.69;;;8.01;72.43
69855;BME280;57146;48.140;16.304;2023-04-09T10:53:23;100141.28;;;7.96;73.40
69855;BME280;57146;48.140;16.304;2023-04-09T10:55:52;100131.84;;;7.95;72.61
69855;BME280;57146;48.140;16.304;2023-04-09T10:58:19;100130.78;;;7.96;73.04
69855;BME280;57146;48.140;16.304;2023-04-09T11:00:48;100136.84;;;8.01;74.85
69855;BME280;57146;48.140;16.304;2023-04-09T11:05:51;100131.84;;;8.00;72.93
69855;BME280;57146;48.140;16.304;2023-04-09T11:08:19;100128.97;;;8.01;74.24
69855;BME280;57146;48.140;16.304;2023-04-09T11:10:46;100131.84;;;8.00;72.72
69855;BME280;57146;48.140;16.304;2023-04-09T11:13:17;100135.50;;;7.99;74.47
69855;BME280;57146;48.140;16.304;2023-04-09T11:15:44;100128.72;;;7.98;68.87
69855;BME280;57146;48.140;16.304;2023-04-09T11:18:19;100120.84;;;8.03;68.09
69855;BME280;57146;48.140;16.304;2023-04-09T11:20:47;100122.94;;;8.16;68.06
69855;BME280;57146;48.140;16.304;2023-04-09T11:23:15;100118.47;;;8.22;67.61
69855;BME280;57146;48.140;16.304;2023-04-09T11:25:47;100115.34;;;8.20;68.48
69855;BME280;57146;48.140;16.304;2023-04-09T11:28:14;100122.41;;;8.24;68.77
69855;BME280;57146;48.140;16.304;2023-04-09T11:30:41;100112.97;;;8.23;67.49
69855;BME280;57146;48.140;16.304;2023-04-09T11:33:09;100118.19;;;8.28;65.80
69855;BME280;57146;48.140;16.304;2023-04-09T11:35:36;100123.97;;;8.25;66.92
69855;BME280;57146;48.140;16.304;2023-04-09T11:38:10;100125.28;;;8.28;65.80
69855;BME280;57146;48.140;16.304;2023-04-09T11:40:40;100122.41;;;8.24;64.75
69855;BME280;57146;48.140;16.304;2023-04-09T11:43:08;100116.13;;;8.20;67.17
69855;BME280;57146;48.140;16.304;2023-04-09T11:45:34;100115.34;;;8.20;67.50
69855;BME280;57146;48.140;16.304;2023-04-09T11:48:02;100123.19;;;8.20;67.83
69855;BME280;57146;48.140;16.304;2023-04-09T11:50:29;100127.91;;;8.18;69.30
69855;BME280;57146;48.140;16.304;2023-04-09T11:52:57;100123.19;;;8.14;71.00
69855;BME280;57146;48.140;16.304;2023-04-09T11:55:26;100119.00;;;8.03;72.14
69855;BME280;57146;48.140;16.304;2023-04-09T11:57:57;100130.78;;;7.96;74.66
69855;BME280;57146;48.140;16.304;2023-04-09T12:00:26;100132.38;;;7.86;75.89
69855;BME280;57146;48.140;16.304;2023-04-09T12:03:03;100132.63;;;7.80;76.59
69855;BME280;57146;48.140;16.304;2023-04-09T12:05:34;100125.00;;;7.73;77.05
69855;BME280;57146;48.140;16.304;2023-04-09T12:08:02;100124.69;;;7.64;75.42
69855;BME280;57146;48.140;16.304;2023-04-09T12:10:31;100131.50;;;7.60;74.48
69855;BME280;57146;48.140;16.304;2023-04-09T12:13:06;100131.50;;;7.55;74.02
69855;BME280;57146;48.140;16.304;2023-04-09T12:15:36;100131.50;;;7.60;73.96
69855;BME280;57146;48.140;16.304;2023-04-09T12:18:07;100131.53;;;7.65;74.23
69855;BME280;57146;48.140;16.304;2023-04-09T12:20:38;100135.47;;;7.78;73.54
69855;BME280;57146;48.140;16.304;2023-04-09T12:23:06;100133.16;;;7.87;74.90
69855;BME280;57146;48.140;16.304;2023-04-09T12:25:36;100133.41;;;7.96;73.09
69855;BME280;57146;48.140;16.304;2023-04-09T12:28:04;100137.88;;;8.05;72.43
69855;BME280;57146;48.140;16.304;2023-04-09T12:30:32;100130.78;;;8.11;71.11
69855;BME280;57146;48.140;16.304;2023-04-09T12:33:02;100125.28;;;8.18;70.11
69855;BME280;57146;48.140;16.304;2023-04-09T12:35:29;100116.13;;;8.20;69.81
69855;BME280;57146;48.140;16.304;2023-04-09T12:37:56;100123.44;;;8.18;69.93
69855;BME280;57146;48.140;16.304;2023-04-09T12:40:23;100124.53;;;8.12;71.09
69855;BME280;57146;48.140;16.304;2023-04-09T12:42:51;100118.19;;;8.18;72.82
69855;BME280;57146;48.140;16.304;2023-04-09T12:45:20;100121.34;;;8.25;73.19
69855;BME280;57146;48.140;16.304;2023-04-09T12:47:47;100117.94;;;8.35;72.82
69855;BME280;57146;48.140;16.304;2023-04-09T12:50:14;100112.72;;;8.45;71.60
69855;BME280;57146;48.140;16.304;2023-04-09T12:52:43;100113.22;;;8.52;65.76
69855;BME280;57146;48.140;16.304;2023-04-09T12:55:10;100109.81;;;8.57;63.41
69855;BME280;57146;48.140;16.304;2023-04-09T12:57:42;100108.00;;;8.57;63.22
69855;BME280;57146;48.140;16.304;2023-04-09T13:00:10;100105.38;;;8.57;68.25
69855;BME280;57146;48.140;16.304;2023-04-09T13:02:37;100112.19;;;8.58;68.18
69855;BME280;57146;48.140;16.304;2023-04-09T13:05:05;100109.03;;;8.61;67.78
69855;BME280;57146;48.140;16.304;2023-04-09T13:07:32;100115.06;;;8.62;64.69
69855;BME280;57146;48.140;16.304;2023-04-09T13:09:59;100115.34;;;8.55;65.96
69855;BME280;57146;48.140;16.304;2023-04-09T13:12:25;100108.78;;;8.58;66.67
69855;BME280;57146;48.140;16.304;2023-04-09T13:14:53;100105.06;;;8.64;64.51
69855;BME280;57146;48.140;16.304;2023-04-09T13:17:20;100101.91;;;8.67;63.90